Terminal Aerodrome Forecast
Issued by NWS

Home | Current Version | Previous Version | Text Only | Print | Product List | Glossary On
Versions: 1 2 3 4 5 6 7 8 9 10 11 12
000
FTUS43 KEAX 222322
TAFSTJ
TAF
KSTJ 222322Z 2300/2324 11013KT P6SM BKN040
     FM230600 15012G20KT P6SM OVC025
     FM231000 17013KT P6SM -DZ VCSH OVC020
     FM231600 18015G25KT P6SM BKN025
     FM232100 18015G25KT P6SM SCT035=

USA.gov is the U.S. government's official web portal to all federal, state and local government web resources and services.